sensor_id;sensor_type;location;lat;lon;timestamp;P1;durP1;ratioP1;P2;durP2;ratioP2
21505;SDS011;10914;48.886;9.394;2023-12-29T00:00:11;25.77;;;24.40;;
21505;SDS011;10914;48.886;9.394;2023-12-29T00:02:37;27.40;;;25.80;;
21505;SDS011;10914;48.886;9.394;2023-12-29T00:05:02;25.80;;;24.30;;
21505;SDS011;10914;48.886;9.394;2023-12-29T00:07:27;24.60;;;23.30;;
21505;SDS011;10914;48.886;9.394;2023-12-29T00:09:52;25.38;;;24.08;;
21505;SDS011;10914;48.886;9.394;2023-12-29T00:12:18;24.33;;;23.03;;
21505;SDS011;10914;48.886;9.394;2023-12-29T00:14:43;25.33;;;24.10;;
21505;SDS011;10914;48.886;9.394;2023-12-29T00:17:08;26.00;;;24.50;;
21505;SDS011;10914;48.886;9.394;2023-12-29T00:19:33;25.40;;;24.10;;
21505;SDS011;10914;48.886;9.394;2023-12-29T00:21:59;25.60;;;24.30;;
21505;SDS011;10914;48.886;9.394;2023-12-29T00:24:25;25.40;;;24.10;;
21505;SDS011;10914;48.886;9.394;2023-12-29T00:26:50;25.27;;;23.98;;
21505;SDS011;10914;48.886;9.394;2023-12-29T00:29:15;24.70;;;23.40;;
21505;SDS011;10914;48.886;9.394;2023-12-29T00:31:41;23.95;;;22.65;;
21505;SDS011;10914;48.886;9.394;2023-12-29T00:34:06;24.08;;;22.88;;
21505;SDS011;10914;48.886;9.394;2023-12-29T00:36:31;24.27;;;22.88;;
21505;SDS011;10914;48.886;9.394;2023-12-29T00:38:57;24.35;;;22.95;;
21505;SDS011;10914;48.886;9.394;2023-12-29T00:41:22;25.15;;;23.75;;
21505;SDS011;10914;48.886;9.394;2023-12-29T00:43:47;25.67;;;24.27;;
21505;SDS011;10914;48.886;9.394;2023-12-29T00:46:13;24.87;;;23.40;;
21505;SDS011;10914;48.886;9.394;2023-12-29T00:48:39;24.90;;;23.48;;
21505;SDS011;10914;48.886;9.394;2023-12-29T00:51:05;24.27;;;23.08;;
21505;SDS011;10914;48.886;9.394;2023-12-29T00:53:30;23.73;;;22.52;;
21505;SDS011;10914;48.886;9.394;2023-12-29T00:55:57;24.92;;;23.63;;
21505;SDS011;10914;48.886;9.394;2023-12-29T00:58:22;24.83;;;23.52;;
21505;SDS011;10914;48.886;9.394;2023-12-29T01:00:47;24.23;;;22.92;;
21505;SDS011;10914;48.886;9.394;2023-12-29T01:03:12;24.98;;;23.65;;
21505;SDS011;10914;48.886;9.394;2023-12-29T01:05:38;24.58;;;23.27;;
21505;SDS011;10914;48.886;9.394;2023-12-29T01:08:03;24.45;;;23.10;;
21505;SDS011;10914;48.886;9.394;2023-12-29T01:10:28;25.33;;;24.02;;
21505;SDS011;10914;48.886;9.394;2023-12-29T01:12:53;25.30;;;24.00;;
21505;SDS011;10914;48.886;9.394;2023-12-29T01:15:18;24.97;;;23.67;;
21505;SDS011;10914;48.886;9.394;2023-12-29T01:17:44;25.02;;;23.73;;
21505;SDS011;10914;48.886;9.394;2023-12-29T01:20:09;25.90;;;24.40;;
21505;SDS011;10914;48.886;9.394;2023-12-29T01:22:34;25.25;;;23.90;;
21505;SDS011;10914;48.886;9.394;2023-12-29T01:25:00;25.43;;;24.13;;
21505;SDS011;10914;48.886;9.394;2023-12-29T01:27:25;25.10;;;23.80;;
21505;SDS011;10914;48.886;9.394;2023-12-29T01:29:51;24.73;;;23.38;;
21505;SDS011;10914;48.886;9.394;2023-12-29T01:32:17;25.90;;;24.40;;
21505;SDS011;10914;48.886;9.394;2023-12-29T01:34:42;25.80;;;24.50;;
21505;SDS011;10914;48.886;9.394;2023-12-29T01:37:07;24.70;;;23.45;;
21505;SDS011;10914;48.886;9.394;2023-12-29T01:39:33;25.27;;;23.77;;
21505;SDS011;10914;48.886;9.394;2023-12-29T01:41:58;26.40;;;24.90;;
21505;SDS011;10914;48.886;9.394;2023-12-29T01:44:23;26.13;;;24.73;;
21505;SDS011;10914;48.886;9.394;2023-12-29T01:46:49;25.25;;;23.85;;
21505;SDS011;10914;48.886;9.394;2023-12-29T01:49:15;25.10;;;23.70;;
21505;SDS011;10914;48.886;9.394;2023-12-29T01:51:42;25.48;;;24.08;;
21505;SDS011;10914;48.886;9.394;2023-12-29T01:54:08;25.05;;;23.50;;
21505;SDS011;10914;48.886;9.394;2023-12-29T01:56:34;24.30;;;23.00;;
21505;SDS011;10914;48.886;9.394;2023-12-29T01:58:59;24.02;;;22.73;;
21505;SDS011;10914;48.886;9.394;2023-12-29T02:01:24;24.75;;;23.45;;
21505;SDS011;10914;48.886;9.394;2023-12-29T02:03:49;25.05;;;23.75;;
21505;SDS011;10914;48.886;9.394;2023-12-29T02:06:14;25.80;;;24.07;;
21505;SDS011;10914;48.886;9.394;2023-12-29T02:08:41;25.38;;;24.02;;
21505;SDS011;10914;48.886;9.394;2023-12-29T02:11:06;24.37;;;23.07;;
21505;SDS011;10914;48.886;9.394;2023-12-29T02:13:31;25.23;;;23.90;;
21505;SDS011;10914;48.886;9.394;2023-12-29T02:15:58;24.60;;;23.30;;
21505;SDS011;10914;48.886;9.394;2023-12-29T02:18:25;24.60;;;23.20;;
21505;SDS011;10914;48.886;9.394;2023-12-29T02:20:51;25.23;;;23.83;;
21505;SDS011;10914;48.886;9.394;2023-12-29T02:23:16;25.03;;;23.73;;
21505;SDS011;10914;48.886;9.394;2023-12-29T02:25:42;24.63;;;23.33;;
21505;SDS011;10914;48.886;9.394;2023-12-29T02:28:20;24.53;;;23.13;;
21505;SDS011;10914;48.886;9.394;2023-12-29T02:30:49;25.15;;;23.75;;
21505;SDS011;10914;48.886;9.394;2023-12-29T02:33:20;24.58;;;23.17;;
21505;SDS011;10914;48.886;9.394;2023-12-29T02:35:46;25.05;;;23.73;;
21505;SDS011;10914;48.886;9.394;2023-12-29T02:38:14;24.92;;;23.63;;
21505;SDS011;10914;48.886;9.394;2023-12-29T02:40:39;24.88;;;23.48;;
21505;SDS011;10914;48.886;9.394;2023-12-29T02:43:04;24.30;;;22.92;;
21505;SDS011;10914;48.886;9.394;2023-12-29T02:45:29;24.65;;;22.98;;
21505;SDS011;10914;48.886;9.394;2023-12-29T02:47:54;25.05;;;23.65;;
21505;SDS011;10914;48.886;9.394;2023-12-29T02:50:20;24.70;;;23.10;;
21505;SDS011;10914;48.886;9.394;2023-12-29T02:52:45;24.70;;;23.33;;
21505;SDS011;10914;48.886;9.394;2023-12-29T02:55:10;25.20;;;23.77;;
21505;SDS011;10914;48.886;9.394;2023-12-29T02:57:35;25.05;;;23.65;;
21505;SDS011;10914;48.886;9.394;2023-12-29T03:00:00;25.75;;;24.30;;
21505;SDS011;10914;48.886;9.394;2023-12-29T03:02:25;25.10;;;23.70;;
21505;SDS011;10914;48.886;9.394;2023-12-29T03:04:51;25.27;;;23.88;;
21505;SDS011;10914;48.886;9.394;2023-12-29T03:07:16;25.07;;;23.57;;
21505;SDS011;10914;48.886;9.394;2023-12-29T03:09:41;25.00;;;23.70;;
21505;SDS011;10914;48.886;9.394;2023-12-29T03:12:06;25.88;;;24.23;;
21505;SDS011;10914;48.886;9.394;2023-12-29T03:14:32;25.10;;;23.60;;
21505;SDS011;10914;48.886;9.394;2023-12-29T03:16:57;25.80;;;24.20;;
21505;SDS011;10914;48.886;9.394;2023-12-29T03:19:22;24.92;;;23.52;;
21505;SDS011;10914;48.886;9.394;2023-12-29T03:21:48;24.75;;;23.38;;
21505;SDS011;10914;48.886;9.394;2023-12-29T03:24:13;25.10;;;23.60;;
21505;SDS011;10914;48.886;9.394;2023-12-29T03:26:38;25.87;;;24.53;;
21505;SDS011;10914;48.886;9.394;2023-12-29T03:29:03;25.52;;;24.13;;
21505;SDS011;10914;48.886;9.394;2023-12-29T03:31:28;26.07;;;24.63;;
21505;SDS011;10914;48.886;9.394;2023-12-29T03:33:53;25.93;;;24.43;;
21505;SDS011;10914;48.886;9.394;2023-12-29T03:36:19;25.53;;;24.13;;
21505;SDS011;10914;48.886;9.394;2023-12-29T03:38:44;26.17;;;24.60;;
21505;SDS011;10914;48.886;9.394;2023-12-29T03:41:09;25.77;;;24.38;;
21505;SDS011;10914;48.886;9.394;2023-12-29T03:43:34;25.15;;;23.85;;
21505;SDS011;10914;48.886;9.394;2023-12-29T03:45:59;26.23;;;24.83;;
21505;SDS011;10914;48.886;9.394;2023-12-29T03:48:24;27.25;;;25.65;;
21505;SDS011;10914;48.886;9.394;2023-12-29T03:50:50;26.27;;;24.90;;
21505;SDS011;10914;48.886;9.394;2023-12-29T03:53:15;26.83;;;25.33;;
21505;SDS011;10914;48.886;9.394;2023-12-29T03:55:41;25.95;;;24.50;;
21505;SDS011;10914;48.886;9.394;2023-12-29T03:58:06;25.35;;;24.00;;
21505;SDS011;10914;48.886;9.394;2023-12-29T04:00:31;25.30;;;23.83;;
21505;SDS011;10914;48.886;9.394;2023-12-29T04:02:56;25.73;;;24.33;;
21505;SDS011;10914;48.886;9.394;2023-12-29T04:05:21;24.73;;;23.43;;
21505;SDS011;10914;48.886;9.394;2023-12-29T04:07:47;25.42;;;23.92;;
21505;SDS011;10914;48.886;9.394;2023-12-29T04:10:12;25.83;;;24.42;;
21505;SDS011;10914;48.886;9.394;2023-12-29T04:12:37;26.40;;;24.80;;
21505;SDS011;10914;48.886;9.394;2023-12-29T04:15:03;25.73;;;24.25;;
21505;SDS011;10914;48.886;9.394;2023-12-29T04:17:28;25.80;;;24.40;;
21505;SDS011;10914;48.886;9.394;2023-12-29T04:19:53;25.90;;;24.50;;
21505;SDS011;10914;48.886;9.394;2023-12-29T04:22:19;25.52;;;24.10;;
21505;SDS011;10914;48.886;9.394;2023-12-29T04:24:44;25.23;;;23.83;;
21505;SDS011;10914;48.886;9.394;2023-12-29T04:27:09;26.25;;;24.85;;
21505;SDS011;10914;48.886;9.394;2023-12-29T04:29:34;25.95;;;24.55;;
21505;SDS011;10914;48.886;9.394;2023-12-29T04:32:00;25.63;;;24.20;;
21505;SDS011;10914;48.886;9.394;2023-12-29T04:34:25;24.98;;;23.58;;
21505;SDS011;10914;48.886;9.394;2023-12-29T04:36:50;25.45;;;24.10;;
21505;SDS011;10914;48.886;9.394;2023-12-29T04:39:15;24.80;;;23.50;;
21505;SDS011;10914;48.886;9.394;2023-12-29T04:41:40;27.30;;;25.67;;
21505;SDS011;10914;48.886;9.394;2023-12-29T04:44:05;25.10;;;23.80;;
21505;SDS011;10914;48.886;9.394;2023-12-29T04:46:31;25.48;;;24.05;;
21505;SDS011;10914;48.886;9.394;2023-12-29T04:48:56;25.00;;;23.50;;
21505;SDS011;10914;48.886;9.394;2023-12-29T04:51:21;25.13;;;23.83;;
21505;SDS011;10914;48.886;9.394;2023-12-29T04:53:47;25.47;;;24.07;;
21505;SDS011;10914;48.886;9.394;2023-12-29T04:56:12;25.20;;;23.85;;
21505;SDS011;10914;48.886;9.394;2023-12-29T04:58:37;25.37;;;24.07;;
21505;SDS011;10914;48.886;9.394;2023-12-29T05:01:02;25.83;;;24.42;;
21505;SDS011;10914;48.886;9.394;2023-12-29T05:03:28;25.25;;;23.85;;
21505;SDS011;10914;48.886;9.394;2023-12-29T05:05:53;25.55;;;24.05;;
21505;SDS011;10914;48.886;9.394;2023-12-29T05:08:18;25.10;;;23.70;;
21505;SDS011;10914;48.886;9.394;2023-12-29T05:10:43;25.38;;;23.98;;
21505;SDS011;10914;48.886;9.394;2023-12-29T05:13:08;25.63;;;24.13;;
21505;SDS011;10914;48.886;9.394;2023-12-29T05:15:33;25.67;;;24.23;;
21505;SDS011;10914;48.886;9.394;2023-12-29T05:17:59;25.40;;;24.10;;
21505;SDS011;10914;48.886;9.394;2023-12-29T05:20:24;25.20;;;23.85;;
21505;SDS011;10914;48.886;9.394;2023-12-29T05:22:49;24.42;;;23.13;;
21505;SDS011;10914;48.886;9.394;2023-12-29T05:25:14;24.40;;;23.10;;
21505;SDS011;10914;48.886;9.394;2023-12-29T05:27:39;24.23;;;22.90;;
21505;SDS011;10914;48.886;9.394;2023-12-29T05:30:05;24.80;;;23.40;;
21505;SDS011;10914;48.886;9.394;2023-12-29T05:32:31;24.00;;;22.80;;
21505;SDS011;10914;48.886;9.394;2023-12-29T05:34:56;25.90;;;24.40;;
21505;SDS011;10914;48.886;9.394;2023-12-29T05:37:21;27.13;;;25.73;;
21505;SDS011;10914;48.886;9.394;2023-12-29T05:39:46;28.00;;;26.60;;
21505;SDS011;10914;48.886;9.394;2023-12-29T05:42:11;26.80;;;25.40;;
21505;SDS011;10914;48.886;9.394;2023-12-29T05:44:37;25.67;;;24.33;;
21505;SDS011;10914;48.886;9.394;2023-12-29T05:47:02;26.60;;;25.13;;
21505;SDS011;10914;48.886;9.394;2023-12-29T05:49:27;26.55;;;25.02;;
21505;SDS011;10914;48.886;9.394;2023-12-29T05:51:53;26.00;;;24.50;;
21505;SDS011;10914;48.886;9.394;2023-12-29T05:54:18;25.83;;;24.43;;
21505;SDS011;10914;48.886;9.394;2023-12-29T05:56:43;26.27;;;24.77;;
21505;SDS011;10914;48.886;9.394;2023-12-29T05:59:08;27.38;;;25.67;;
21505;SDS011;10914;48.886;9.394;2023-12-29T06:01:33;26.25;;;24.75;;
21505;SDS011;10914;48.886;9.394;2023-12-29T06:03:58;25.47;;;24.07;;
21505;SDS011;10914;48.886;9.394;2023-12-29T06:06:24;26.37;;;24.87;;
21505;SDS011;10914;48.886;9.394;2023-12-29T06:08:49;27.23;;;25.53;;
21505;SDS011;10914;48.886;9.394;2023-12-29T06:11:14;29.50;;;27.80;;
21505;SDS011;10914;48.886;9.394;2023-12-29T06:13:41;29.60;;;27.85;;
21505;SDS011;10914;48.886;9.394;2023-12-29T06:16:06;31.07;;;29.47;;
21505;SDS011;10914;48.886;9.394;2023-12-29T06:18:31;31.90;;;30.20;;
21505;SDS011;10914;48.886;9.394;2023-12-29T06:20:56;28.70;;;27.10;;
21505;SDS011;10914;48.886;9.394;2023-12-29T06:23:21;31.20;;;29.40;;
21505;SDS011;10914;48.886;9.394;2023-12-29T06:25:46;34.37;;;32.43;;
21505;SDS011;10914;48.886;9.394;2023-12-29T06:28:12;32.37;;;30.47;;
21505;SDS011;10914;48.886;9.394;2023-12-29T06:30:37;35.42;;;33.50;;
21505;SDS011;10914;48.886;9.394;2023-12-29T06:33:02;31.75;;;29.88;;
21505;SDS011;10914;48.886;9.394;2023-12-29T06:35:27;36.58;;;34.45;;
21505;SDS011;10914;48.886;9.394;2023-12-29T06:37:52;29.10;;;27.50;;
21505;SDS011;10914;48.886;9.394;2023-12-29T06:40:17;33.05;;;31.15;;
21505;SDS011;10914;48.886;9.394;2023-12-29T06:42:43;28.17;;;26.48;;
21505;SDS011;10914;48.886;9.394;2023-12-29T06:45:08;30.13;;;28.23;;
21505;SDS011;10914;48.886;9.394;2023-12-29T06:47:33;29.45;;;27.55;;
21505;SDS011;10914;48.886;9.394;2023-12-29T06:49:58;29.70;;;27.90;;
21505;SDS011;10914;48.886;9.394;2023-12-29T06:52:24;29.80;;;28.00;;
21505;SDS011;10914;48.886;9.394;2023-12-29T06:54:49;32.55;;;30.65;;
21505;SDS011;10914;48.886;9.394;2023-12-29T06:57:14;31.52;;;29.73;;
21505;SDS011;10914;48.886;9.394;2023-12-29T06:59:40;33.50;;;31.50;;
21505;SDS011;10914;48.886;9.394;2023-12-29T07:02:05;35.15;;;33.22;;
21505;SDS011;10914;48.886;9.394;2023-12-29T07:04:31;37.67;;;35.57;;
21505;SDS011;10914;48.886;9.394;2023-12-29T07:06:56;39.53;;;37.30;;
21505;SDS011;10914;48.886;9.394;2023-12-29T07:09:21;35.28;;;33.25;;
21505;SDS011;10914;48.886;9.394;2023-12-29T07:11:47;34.80;;;32.93;;
21505;SDS011;10914;48.886;9.394;2023-12-29T07:14:12;35.15;;;33.17;;
21505;SDS011;10914;48.886;9.394;2023-12-29T07:16:37;35.53;;;33.57;;
21505;SDS011;10914;48.886;9.394;2023-12-29T07:19:02;35.80;;;33.80;;
21505;SDS011;10914;48.886;9.394;2023-12-29T07:21:28;36.67;;;34.83;;
21505;SDS011;10914;48.886;9.394;2023-12-29T07:23:53;29.48;;;27.65;;
21505;SDS011;10914;48.886;9.394;2023-12-29T07:26:18;24.97;;;23.67;;
21505;SDS011;10914;48.886;9.394;2023-12-29T07:28:43;26.90;;;25.40;;
21505;SDS011;10914;48.886;9.394;2023-12-29T07:31:08;28.77;;;27.08;;
21505;SDS011;10914;48.886;9.394;2023-12-29T07:33:33;34.67;;;32.85;;
21505;SDS011;10914;48.886;9.394;2023-12-29T07:35:59;26.30;;;24.67;;
21505;SDS011;10914;48.886;9.394;2023-12-29T07:38:24;31.58;;;29.95;;
21505;SDS011;10914;48.886;9.394;2023-12-29T07:40:49;42.00;;;39.80;;
21505;SDS011;10914;48.886;9.394;2023-12-29T07:43:15;32.53;;;30.92;;
21505;SDS011;10914;48.886;9.394;2023-12-29T07:45:40;31.80;;;29.90;;
21505;SDS011;10914;48.886;9.394;2023-12-29T07:48:05;27.88;;;26.48;;
21505;SDS011;10914;48.886;9.394;2023-12-29T07:50:30;43.80;;;41.63;;
21505;SDS011;10914;48.886;9.394;2023-12-29T07:52:56;49.97;;;47.45;;
21505;SDS011;10914;48.886;9.394;2023-12-29T07:55:21;28.93;;;27.37;;
21505;SDS011;10914;48.886;9.394;2023-12-29T07:57:46;27.15;;;25.55;;
21505;SDS011;10914;48.886;9.394;2023-12-29T08:00:12;26.10;;;24.70;;
21505;SDS011;10914;48.886;9.394;2023-12-29T08:02:37;31.13;;;28.55;;
21505;SDS011;10914;48.886;9.394;2023-12-29T08:05:02;29.73;;;27.67;;
21505;SDS011;10914;48.886;9.394;2023-12-29T08:07:28;38.30;;;34.38;;
21505;SDS011;10914;48.886;9.394;2023-12-29T08:09:53;105.67;;;75.60;;
21505;SDS011;10914;48.886;9.394;2023-12-29T08:12:18;60.23;;;51.67;;
21505;SDS011;10914;48.886;9.394;2023-12-29T08:14:43;27.25;;;25.65;;
21505;SDS011;10914;48.886;9.394;2023-12-29T08:17:09;26.30;;;24.73;;
21505;SDS011;10914;48.886;9.394;2023-12-29T08:19:34;25.00;;;23.60;;
21505;SDS011;10914;48.886;9.394;2023-12-29T08:21:59;24.17;;;22.98;;
21505;SDS011;10914;48.886;9.394;2023-12-29T08:24:25;25.03;;;23.27;;
21505;SDS011;10914;48.886;9.394;2023-12-29T08:26:50;24.10;;;22.80;;
21505;SDS011;10914;48.886;9.394;2023-12-29T08:29:15;22.80;;;21.60;;
21505;SDS011;10914;48.886;9.394;2023-12-29T08:31:41;23.65;;;22.40;;
21505;SDS011;10914;48.886;9.394;2023-12-29T08:34:06;23.95;;;22.70;;
21505;SDS011;10914;48.886;9.394;2023-12-29T08:36:31;24.33;;;23.13;;
21505;SDS011;10914;48.886;9.394;2023-12-29T08:38:56;24.27;;;23.03;;
21505;SDS011;10914;48.886;9.394;2023-12-29T08:41:22;25.25;;;23.85;;
21505;SDS011;10914;48.886;9.394;2023-12-29T08:43:47;24.33;;;23.02;;
21505;SDS011;10914;48.886;9.394;2023-12-29T08:46:12;39.43;;;35.70;;
21505;SDS011;10914;48.886;9.394;2023-12-29T08:48:38;25.30;;;23.87;;
21505;SDS011;10914;48.886;9.394;2023-12-29T08:51:03;24.83;;;23.53;;
21505;SDS011;10914;48.886;9.394;2023-12-29T08:53:28;24.48;;;22.98;;
21505;SDS011;10914;48.886;9.394;2023-12-29T08:55:56;24.17;;;22.88;;
21505;SDS011;10914;48.886;9.394;2023-12-29T08:58:21;28.07;;;26.47;;
21505;SDS011;10914;48.886;9.394;2023-12-29T09:00:46;26.63;;;25.13;;
21505;SDS011;10914;48.886;9.394;2023-12-29T09:03:11;25.83;;;24.45;;
21505;SDS011;10914;48.886;9.394;2023-12-29T09:05:36;33.10;;;30.77;;
21505;SDS011;10914;48.886;9.394;2023-12-29T09:08:02;28.35;;;26.92;;
21505;SDS011;10914;48.886;9.394;2023-12-29T09:10:27;26.70;;;25.38;;
21505;SDS011;10914;48.886;9.394;2023-12-29T09:12:52;25.23;;;23.90;;
21505;SDS011;10914;48.886;9.394;2023-12-29T09:15:17;26.02;;;24.73;;
21505;SDS011;10914;48.886;9.394;2023-12-29T09:17:43;29.63;;;27.90;;
21505;SDS011;10914;48.886;9.394;2023-12-29T09:20:08;26.75;;;25.30;;
21505;SDS011;10914;48.886;9.394;2023-12-29T09:22:34;27.38;;;25.88;;
21505;SDS011;10914;48.886;9.394;2023-12-29T09:24:59;25.58;;;24.23;;
21505;SDS011;10914;48.886;9.394;2023-12-29T09:27:24;27.15;;;25.70;;
21505;SDS011;10914;48.886;9.394;2023-12-29T09:29:49;29.00;;;27.50;;
21505;SDS011;10914;48.886;9.394;2023-12-29T09:32:15;27.77;;;26.38;;
21505;SDS011;10914;48.886;9.394;2023-12-29T09:34:40;29.40;;;27.80;;
21505;SDS011;10914;48.886;9.394;2023-12-29T09:37:05;31.88;;;30.13;;
21505;SDS011;10914;48.886;9.394;2023-12-29T09:39:30;32.10;;;30.37;;
21505;SDS011;10914;48.886;9.394;2023-12-29T09:41:57;29.92;;;28.42;;
21505;SDS011;10914;48.886;9.394;2023-12-29T09:44:23;32.35;;;30.75;;
21505;SDS011;10914;48.886;9.394;2023-12-29T09:46:49;31.63;;;30.05;;
21505;SDS011;10914;48.886;9.394;2023-12-29T09:49:14;32.20;;;30.58;;
21505;SDS011;10914;48.886;9.394;2023-12-29T09:51:41;30.75;;;29.15;;
21505;SDS011;10914;48.886;9.394;2023-12-29T09:54:06;31.80;;;30.25;;
21505;SDS011;10914;48.886;9.394;2023-12-29T09:56:33;29.70;;;28.20;;
21505;SDS011;10914;48.886;9.394;2023-12-29T09:58:59;27.88;;;26.58;;
21505;SDS011;10914;48.886;9.394;2023-12-29T10:01:24;29.15;;;27.65;;
21505;SDS011;10914;48.886;9.394;2023-12-29T10:03:52;32.42;;;30.48;;
21505;SDS011;10914;48.886;9.394;2023-12-29T10:06:19;43.13;;;39.23;;
21505;SDS011;10914;48.886;9.394;2023-12-29T10:08:45;28.67;;;27.17;;
21505;SDS011;10914;48.886;9.394;2023-12-29T10:11:11;30.52;;;29.02;;
21505;SDS011;10914;48.886;9.394;2023-12-29T10:13:38;29.98;;;28.38;;
21505;SDS011;10914;48.886;9.394;2023-12-29T10:18:33;28.33;;;27.02;;
21505;SDS011;10914;48.886;9.394;2023-12-29T10:23:28;30.08;;;28.58;;
21505;SDS011;10914;48.886;9.394;2023-12-29T10:25:57;29.92;;;28.35;;
21505;SDS011;10914;48.886;9.394;2023-12-29T10:28:22;28.87;;;27.47;;
21505;SDS011;10914;48.886;9.394;2023-12-29T10:30:47;23.70;;;22.50;;
21505;SDS011;10914;48.886;9.394;2023-12-29T10:33:18;30.10;;;27.60;;
21505;SDS011;10914;48.886;9.394;2023-12-29T10:35:55;23.75;;;22.35;;
21505;SDS011;10914;48.886;9.394;2023-12-29T10:38:21;22.90;;;21.80;;
21505;SDS011;10914;48.886;9.394;2023-12-29T10:40:46;22.30;;;21.20;;
21505;SDS011;10914;48.886;9.394;2023-12-29T10:43:11;21.42;;;20.40;;
21505;SDS011;10914;48.886;9.394;2023-12-29T10:45:36;20.87;;;19.67;;
21505;SDS011;10914;48.886;9.394;2023-12-29T10:48:02;20.38;;;19.38;;
21505;SDS011;10914;48.886;9.394;2023-12-29T10:50:27;20.23;;;19.23;;
21505;SDS011;10914;48.886;9.394;2023-12-29T10:53:11;23.80;;;22.65;;
21505;SDS011;10914;48.886;9.394;2023-12-29T10:55:37;28.00;;;26.65;;
21505;SDS011;10914;48.886;9.394;2023-12-29T10:58:02;26.98;;;25.67;;
21505;SDS011;10914;48.886;9.394;2023-12-29T11:00:30;29.10;;;27.77;;
21505;SDS011;10914;48.886;9.394;2023-12-29T11:02:57;27.55;;;26.25;;
21505;SDS011;10914;48.886;9.394;2023-12-29T11:05:24;25.40;;;24.07;;
21505;SDS011;10914;48.886;9.394;2023-12-29T11:07:50;23.77;;;22.67;;
21505;SDS011;10914;48.886;9.394;2023-12-29T11:10:18;22.13;;;21.02;;
21505;SDS011;10914;48.886;9.394;2023-12-29T11:12:45;20.90;;;19.75;;
21505;SDS011;10914;48.886;9.394;2023-12-29T11:15:13;20.08;;;19.10;;
21505;SDS011;10914;48.886;9.394;2023-12-29T11:17:41;20.38;;;19.38;;
21505;SDS011;10914;48.886;9.394;2023-12-29T11:20:17;20.60;;;19.60;;
21505;SDS011;10914;48.886;9.394;2023-12-29T11:22:42;20.60;;;19.60;;
21505;SDS011;10914;48.886;9.394;2023-12-29T11:25:08;21.65;;;20.65;;
21505;SDS011;10914;48.886;9.394;2023-12-29T11:27:34;21.42;;;20.40;;
21505;SDS011;10914;48.886;9.394;2023-12-29T11:30:00;21.55;;;20.55;;
21505;SDS011;10914;48.886;9.394;2023-12-29T11:32:34;23.95;;;22.75;;
21505;SDS011;10914;48.886;9.394;2023-12-29T11:35:06;23.73;;;22.58;;
21505;SDS011;10914;48.886;9.394;2023-12-29T11:40:20;22.25;;;21.25;;
21505;SDS011;10914;48.886;9.394;2023-12-29T11:42:47;22.67;;;21.58;;
21505;SDS011;10914;48.886;9.394;2023-12-29T11:45:23;22.90;;;21.80;;
21505;SDS011;10914;48.886;9.394;2023-12-29T11:47:49;23.98;;;22.85;;
21505;SDS011;10914;48.886;9.394;2023-12-29T11:50:18;23.00;;;22.00;;
21505;SDS011;10914;48.886;9.394;2023-12-29T11:52:52;23.23;;;22.13;;
21505;SDS011;10914;48.886;9.394;2023-12-29T11:55:17;22.75;;;21.73;;
21505;SDS011;10914;48.886;9.394;2023-12-29T11:57:45;22.00;;;20.92;;
21505;SDS011;10914;48.886;9.394;2023-12-29T12:00:11;21.63;;;20.50;;
21505;SDS011;10914;48.886;9.394;2023-12-29T12:02:36;22.77;;;21.40;;
21505;SDS011;10914;48.886;9.394;2023-12-29T12:05:02;22.80;;;21.70;;
21505;SDS011;10914;48.886;9.394;2023-12-29T12:12:40;21.35;;;20.35;;
21505;SDS011;10914;48.886;9.394;2023-12-29T12:15:30;20.98;;;19.90;;
21505;SDS011;10914;48.886;9.394;2023-12-29T12:17:51;21.40;;;20.40;;
21505;SDS011;10914;48.886;9.394;2023-12-29T12:20:16;21.50;;;20.40;;
21505;SDS011;10914;48.886;9.394;2023-12-29T12:22:41;22.50;;;21.40;;
21505;SDS011;10914;48.886;9.394;2023-12-29T12:25:08;22.15;;;21.08;;
21505;SDS011;10914;48.886;9.394;2023-12-29T12:27:39;22.73;;;21.55;;
21505;SDS011;10914;48.886;9.394;2023-12-29T12:30:04;21.20;;;20.20;;
21505;SDS011;10914;48.886;9.394;2023-12-29T12:32:30;20.33;;;19.42;;
21505;SDS011;10914;48.886;9.394;2023-12-29T12:34:55;20.30;;;19.40;;
21505;SDS011;10914;48.886;9.394;2023-12-29T12:37:24;20.52;;;19.52;;
21505;SDS011;10914;48.886;9.394;2023-12-29T12:39:50;20.20;;;19.30;;
21505;SDS011;10914;48.886;9.394;2023-12-29T12:42:16;19.90;;;19.00;;
21505;SDS011;10914;48.886;9.394;2023-12-29T12:44:42;21.02;;;20.02;;
21505;SDS011;10914;48.886;9.394;2023-12-29T12:47:14;21.95;;;20.90;;
21505;SDS011;10914;48.886;9.394;2023-12-29T12:49:40;23.80;;;22.70;;
21505;SDS011;10914;48.886;9.394;2023-12-29T12:52:06;25.67;;;24.48;;
21505;SDS011;10914;48.886;9.394;2023-12-29T12:54:31;22.80;;;21.73;;
21505;SDS011;10914;48.886;9.394;2023-12-29T12:56:56;21.15;;;20.15;;
21505;SDS011;10914;48.886;9.394;2023-12-29T12:59:22;20.27;;;19.25;;
21505;SDS011;10914;48.886;9.394;2023-12-29T13:01:47;20.20;;;19.20;;
21505;SDS011;10914;48.886;9.394;2023-12-29T13:04:15;20.92;;;19.92;;
21505;SDS011;10914;48.886;9.394;2023-12-29T13:06:41;20.65;;;19.55;;
21505;SDS011;10914;48.886;9.394;2023-12-29T13:09:08;21.15;;;20.15;;
21505;SDS011;10914;48.886;9.394;2023-12-29T13:11:36;21.40;;;20.30;;
21505;SDS011;10914;48.886;9.394;2023-12-29T13:14:01;21.30;;;20.20;;
21505;SDS011;10914;48.886;9.394;2023-12-29T13:16:34;21.38;;;20.27;;
21505;SDS011;10914;48.886;9.394;2023-12-29T13:21:47;21.17;;;20.17;;
21505;SDS011;10914;48.886;9.394;2023-12-29T13:24:16;21.70;;;20.60;;
21505;SDS011;10914;48.886;9.394;2023-12-29T13:26:41;21.60;;;20.60;;
21505;SDS011;10914;48.886;9.394;2023-12-29T13:29:09;21.67;;;20.67;;
21505;SDS011;10914;48.886;9.394;2023-12-29T13:31:34;22.75;;;21.67;;
21505;SDS011;10914;48.886;9.394;2023-12-29T13:34:04;21.42;;;20.33;;
21505;SDS011;10914;48.886;9.394;2023-12-29T13:39:09;22.38;;;21.27;;
21505;SDS011;10914;48.886;9.394;2023-12-29T13:41:37;21.67;;;20.63;;
21505;SDS011;10914;48.886;9.394;2023-12-29T13:44:03;21.60;;;20.50;;
21505;SDS011;10914;48.886;9.394;2023-12-29T13:46:28;22.52;;;21.38;;
21505;SDS011;10914;48.886;9.394;2023-12-29T13:48:57;22.85;;;21.65;;
21505;SDS011;10914;48.886;9.394;2023-12-29T13:51:23;22.45;;;21.38;;
21505;SDS011;10914;48.886;9.394;2023-12-29T13:53:49;21.17;;;20.17;;
21505;SDS011;10914;48.886;9.394;2023-12-29T13:56:14;22.23;;;21.10;;
21505;SDS011;10914;48.886;9.394;2023-12-29T13:58:39;21.25;;;20.25;;
21505;SDS011;10914;48.886;9.394;2023-12-29T14:01:06;22.20;;;21.10;;
21505;SDS011;10914;48.886;9.394;2023-12-29T14:03:37;22.10;;;21.00;;
21505;SDS011;10914;48.886;9.394;2023-12-29T14:06:07;22.15;;;21.05;;
21505;SDS011;10914;48.886;9.394;2023-12-29T14:08:44;22.10;;;21.00;;
21505;SDS011;10914;48.886;9.394;2023-12-29T14:11:10;21.98;;;20.98;;
21505;SDS011;10914;48.886;9.394;2023-12-29T14:13:35;21.83;;;20.73;;
21505;SDS011;10914;48.886;9.394;2023-12-29T14:16:05;23.10;;;21.70;;
21505;SDS011;10914;48.886;9.394;2023-12-29T14:20:56;22.55;;;21.35;;
21505;SDS011;10914;48.886;9.394;2023-12-29T14:23:21;21.70;;;20.70;;
21505;SDS011;10914;48.886;9.394;2023-12-29T14:25:46;21.37;;;20.37;;
21505;SDS011;10914;48.886;9.394;2023-12-29T14:28:18;21.35;;;20.27;;
21505;SDS011;10914;48.886;9.394;2023-12-29T14:30:44;21.60;;;20.50;;
21505;SDS011;10914;48.886;9.394;2023-12-29T14:33:09;21.85;;;20.75;;